sensor_id;sensor_type;location;lat;lon;timestamp;P1;durP1;ratioP1;P2;durP2;ratioP2
84019;SDS011;74102;49.084;13.694;2024-01-30T00:00:35;2.45;;;1.00;;
84019;SDS011;74102;49.084;13.694;2024-01-30T00:03:00;3.53;;;1.10;;
84019;SDS011;74102;49.084;13.694;2024-01-30T00:05:26;2.80;;;1.10;;
84019;SDS011;74102;49.084;13.694;2024-01-30T00:07:51;4.07;;;1.10;;
84019;SDS011;74102;49.084;13.694;2024-01-30T00:10:16;4.72;;;1.60;;
84019;SDS011;74102;49.084;13.694;2024-01-30T00:12:42;8.30;;;2.40;;
84019;SDS011;74102;49.084;13.694;2024-01-30T00:15:07;6.43;;;2.35;;
84019;SDS011;74102;49.084;13.694;2024-01-30T00:17:35;5.38;;;1.65;;
84019;SDS011;74102;49.084;13.694;2024-01-30T00:20:03;5.57;;;2.10;;
84019;SDS011;74102;49.084;13.694;2024-01-30T00:22:31;5.95;;;1.80;;
84019;SDS011;74102;49.084;13.694;2024-01-30T00:24:56;5.35;;;1.75;;
84019;SDS011;74102;49.084;13.694;2024-01-30T00:27:22;5.53;;;1.98;;
84019;SDS011;74102;49.084;13.694;2024-01-30T00:29:47;5.65;;;2.10;;
84019;SDS011;74102;49.084;13.694;2024-01-30T00:32:12;4.30;;;1.90;;
84019;SDS011;74102;49.084;13.694;2024-01-30T00:34:38;4.13;;;1.60;;
84019;SDS011;74102;49.084;13.694;2024-01-30T00:37:03;3.45;;;1.27;;
84019;SDS011;74102;49.084;13.694;2024-01-30T00:39:29;3.10;;;1.13;;
84019;SDS011;74102;49.084;13.694;2024-01-30T00:41:54;4.13;;;1.60;;
84019;SDS011;74102;49.084;13.694;2024-01-30T00:44:19;3.83;;;1.20;;
84019;SDS011;74102;49.084;13.694;2024-01-30T00:46:45;4.07;;;1.60;;
84019;SDS011;74102;49.084;13.694;2024-01-30T00:49:10;3.08;;;1.20;;
84019;SDS011;74102;49.084;13.694;2024-01-30T00:51:36;3.85;;;1.50;;
84019;SDS011;74102;49.084;13.694;2024-01-30T00:54:01;3.30;;;1.20;;
84019;SDS011;74102;49.084;13.694;2024-01-30T00:56:27;3.55;;;1.10;;
84019;SDS011;74102;49.084;13.694;2024-01-30T00:58:53;4.65;;;1.40;;
84019;SDS011;74102;49.084;13.694;2024-01-30T01:01:19;2.72;;;1.02;;
84019;SDS011;74102;49.084;13.694;2024-01-30T01:03:44;2.38;;;0.90;;
84019;SDS011;74102;49.084;13.694;2024-01-30T01:06:10;1.98;;;0.70;;
84019;SDS011;74102;49.084;13.694;2024-01-30T01:08:35;3.03;;;1.10;;
84019;SDS011;74102;49.084;13.694;2024-01-30T01:11:01;2.70;;;1.08;;
84019;SDS011;74102;49.084;13.694;2024-01-30T01:13:26;3.72;;;1.50;;
84019;SDS011;74102;49.084;13.694;2024-01-30T01:15:52;3.92;;;1.42;;
84019;SDS011;74102;49.084;13.694;2024-01-30T01:18:17;3.58;;;1.10;;
84019;SDS011;74102;49.084;13.694;2024-01-30T01:20:42;3.30;;;1.23;;
84019;SDS011;74102;49.084;13.694;2024-01-30T01:23:08;3.13;;;1.38;;
84019;SDS011;74102;49.084;13.694;2024-01-30T01:25:33;2.97;;;1.15;;
84019;SDS011;74102;49.084;13.694;2024-01-30T01:27:58;3.50;;;1.35;;
84019;SDS011;74102;49.084;13.694;2024-01-30T01:30:26;6.00;;;1.90;;
84019;SDS011;74102;49.084;13.694;2024-01-30T01:32:51;2.88;;;1.10;;
84019;SDS011;74102;49.084;13.694;2024-01-30T01:35:21;3.65;;;1.00;;
84019;SDS011;74102;49.084;13.694;2024-01-30T01:37:49;2.70;;;1.10;;
84019;SDS011;74102;49.084;13.694;2024-01-30T01:40:19;3.35;;;1.27;;
84019;SDS011;74102;49.084;13.694;2024-01-30T01:42:52;3.95;;;1.35;;
84019;SDS011;74102;49.084;13.694;2024-01-30T01:45:18;2.97;;;1.17;;
84019;SDS011;74102;49.084;13.694;2024-01-30T01:47:45;3.08;;;1.20;;
84019;SDS011;74102;49.084;13.694;2024-01-30T01:50:13;4.45;;;1.52;;
84019;SDS011;74102;49.084;13.694;2024-01-30T01:52:43;2.70;;;1.10;;
84019;SDS011;74102;49.084;13.694;2024-01-30T01:55:10;3.35;;;1.13;;
84019;SDS011;74102;49.084;13.694;2024-01-30T01:57:36;3.30;;;1.20;;
84019;SDS011;74102;49.084;13.694;2024-01-30T02:00:02;3.10;;;1.30;;
84019;SDS011;74102;49.084;13.694;2024-01-30T02:02:30;2.65;;;1.00;;
84019;SDS011;74102;49.084;13.694;2024-01-30T02:05:00;3.50;;;1.27;;
84019;SDS011;74102;49.084;13.694;2024-01-30T02:07:25;3.33;;;1.15;;
84019;SDS011;74102;49.084;13.694;2024-01-30T02:09:52;3.00;;;1.15;;
84019;SDS011;74102;49.084;13.694;2024-01-30T02:12:18;3.67;;;1.42;;
84019;SDS011;74102;49.084;13.694;2024-01-30T02:14:46;4.07;;;1.33;;
84019;SDS011;74102;49.084;13.694;2024-01-30T02:17:13;2.17;;;0.93;;
84019;SDS011;74102;49.084;13.694;2024-01-30T02:19:39;3.85;;;1.10;;
84019;SDS011;74102;49.084;13.694;2024-01-30T02:22:04;3.42;;;1.20;;
84019;SDS011;74102;49.084;13.694;2024-01-30T02:24:30;3.55;;;1.30;;
84019;SDS011;74102;49.084;13.694;2024-01-30T02:26:56;2.13;;;1.10;;
84019;SDS011;74102;49.084;13.694;2024-01-30T02:29:21;2.58;;;0.90;;
84019;SDS011;74102;49.084;13.694;2024-01-30T02:31:47;2.45;;;0.82;;
84019;SDS011;74102;49.084;13.694;2024-01-30T02:34:12;1.98;;;0.80;;
84019;SDS011;74102;49.084;13.694;2024-01-30T02:36:38;3.13;;;1.13;;
84019;SDS011;74102;49.084;13.694;2024-01-30T02:39:03;1.42;;;0.60;;
84019;SDS011;74102;49.084;13.694;2024-01-30T02:41:30;3.17;;;0.90;;
84019;SDS011;74102;49.084;13.694;2024-01-30T02:43:55;5.38;;;1.60;;
84019;SDS011;74102;49.084;13.694;2024-01-30T02:46:20;3.90;;;1.25;;
84019;SDS011;74102;49.084;13.694;2024-01-30T02:48:46;5.28;;;1.85;;
84019;SDS011;74102;49.084;13.694;2024-01-30T02:51:12;7.00;;;1.42;;
84019;SDS011;74102;49.084;13.694;2024-01-30T02:53:37;4.85;;;1.30;;
84019;SDS011;74102;49.084;13.694;2024-01-30T02:56:02;6.13;;;1.10;;
84019;SDS011;74102;49.084;13.694;2024-01-30T02:58:28;5.45;;;1.42;;
84019;SDS011;74102;49.084;13.694;2024-01-30T03:00:53;4.63;;;1.20;;
84019;SDS011;74102;49.084;13.694;2024-01-30T03:03:19;6.32;;;1.48;;
84019;SDS011;74102;49.084;13.694;2024-01-30T03:05:44;2.85;;;1.20;;
84019;SDS011;74102;49.084;13.694;2024-01-30T03:08:09;3.00;;;1.00;;
84019;SDS011;74102;49.084;13.694;2024-01-30T03:10:35;1.33;;;0.68;;
84019;SDS011;74102;49.084;13.694;2024-01-30T03:13:00;3.17;;;0.73;;
84019;SDS011;74102;49.084;13.694;2024-01-30T03:15:26;1.83;;;0.70;;
84019;SDS011;74102;49.084;13.694;2024-01-30T03:17:51;1.80;;;0.80;;
84019;SDS011;74102;49.084;13.694;2024-01-30T03:20:18;3.90;;;1.10;;
84019;SDS011;74102;49.084;13.694;2024-01-30T03:22:43;4.15;;;1.20;;
84019;SDS011;74102;49.084;13.694;2024-01-30T03:25:08;3.42;;;0.90;;
84019;SDS011;74102;49.084;13.694;2024-01-30T03:27:34;3.30;;;1.13;;
84019;SDS011;74102;49.084;13.694;2024-01-30T03:29:59;3.30;;;1.02;;
84019;SDS011;74102;49.084;13.694;2024-01-30T03:32:24;4.35;;;1.35;;
84019;SDS011;74102;49.084;13.694;2024-01-30T03:34:50;4.20;;;1.00;;
84019;SDS011;74102;49.084;13.694;2024-01-30T03:37:15;2.50;;;0.90;;
84019;SDS011;74102;49.084;13.694;2024-01-30T03:39:41;2.33;;;0.80;;
84019;SDS011;74102;49.084;13.694;2024-01-30T03:42:06;3.08;;;0.90;;
84019;SDS011;74102;49.084;13.694;2024-01-30T03:44:31;3.22;;;1.10;;
84019;SDS011;74102;49.084;13.694;2024-01-30T03:46:57;2.50;;;0.70;;
84019;SDS011;74102;49.084;13.694;2024-01-30T03:49:22;3.33;;;0.93;;
84019;SDS011;74102;49.084;13.694;2024-01-30T03:51:48;2.13;;;0.90;;
84019;SDS011;74102;49.084;13.694;2024-01-30T03:54:13;2.08;;;0.75;;
84019;SDS011;74102;49.084;13.694;2024-01-30T03:56:38;1.63;;;0.68;;
84019;SDS011;74102;49.084;13.694;2024-01-30T03:59:04;2.65;;;0.90;;
84019;SDS011;74102;49.084;13.694;2024-01-30T04:01:29;2.05;;;0.82;;
84019;SDS011;74102;49.084;13.694;2024-01-30T04:03:54;2.60;;;0.90;;
84019;SDS011;74102;49.084;13.694;2024-01-30T04:06:20;2.38;;;1.00;;
84019;SDS011;74102;49.084;13.694;2024-01-30T04:08:45;2.45;;;0.98;;
84019;SDS011;74102;49.084;13.694;2024-01-30T04:11:10;2.70;;;1.02;;
84019;SDS011;74102;49.084;13.694;2024-01-30T04:13:36;3.58;;;1.00;;
84019;SDS011;74102;49.084;13.694;2024-01-30T04:16:01;2.00;;;0.75;;
84019;SDS011;74102;49.084;13.694;2024-01-30T04:18:28;1.88;;;0.80;;
84019;SDS011;74102;49.084;13.694;2024-01-30T04:20:53;2.15;;;0.80;;
84019;SDS011;74102;49.084;13.694;2024-01-30T04:23:19;2.53;;;1.05;;
84019;SDS011;74102;49.084;13.694;2024-01-30T04:25:44;2.42;;;0.88;;
84019;SDS011;74102;49.084;13.694;2024-01-30T04:28:12;2.13;;;0.85;;
84019;SDS011;74102;49.084;13.694;2024-01-30T04:30:37;2.90;;;1.00;;
84019;SDS011;74102;49.084;13.694;2024-01-30T04:33:03;3.20;;;1.10;;
84019;SDS011;74102;49.084;13.694;2024-01-30T04:35:29;2.80;;;1.10;;
84019;SDS011;74102;49.084;13.694;2024-01-30T04:37:54;2.40;;;1.10;;
84019;SDS011;74102;49.084;13.694;2024-01-30T04:40:20;2.28;;;0.95;;
84019;SDS011;74102;49.084;13.694;2024-01-30T04:42:46;3.25;;;1.20;;
84019;SDS011;74102;49.084;13.694;2024-01-30T04:45:11;2.25;;;0.93;;
84019;SDS011;74102;49.084;13.694;2024-01-30T04:47:37;2.90;;;1.02;;
84019;SDS011;74102;49.084;13.694;2024-01-30T04:50:04;3.22;;;1.10;;
84019;SDS011;74102;49.084;13.694;2024-01-30T04:52:31;2.40;;;1.00;;
84019;SDS011;74102;49.084;13.694;2024-01-30T04:54:57;2.05;;;0.80;;
84019;SDS011;74102;49.084;13.694;2024-01-30T04:57:22;2.38;;;1.00;;
84019;SDS011;74102;49.084;13.694;2024-01-30T04:59:48;2.85;;;1.10;;
84019;SDS011;74102;49.084;13.694;2024-01-30T05:02:13;2.55;;;0.93;;
84019;SDS011;74102;49.084;13.694;2024-01-30T05:04:40;1.75;;;0.70;;
84019;SDS011;74102;49.084;13.694;2024-01-30T05:07:06;2.33;;;0.90;;
84019;SDS011;74102;49.084;13.694;2024-01-30T05:09:31;2.50;;;0.98;;
84019;SDS011;74102;49.084;13.694;2024-01-30T05:11:56;3.72;;;1.00;;
84019;SDS011;74102;49.084;13.694;2024-01-30T05:14:23;2.20;;;0.80;;
84019;SDS011;74102;49.084;13.694;2024-01-30T05:16:48;3.15;;;1.05;;
84019;SDS011;74102;49.084;13.694;2024-01-30T05:19:14;3.13;;;0.98;;
84019;SDS011;74102;49.084;13.694;2024-01-30T05:21:39;1.95;;;0.80;;
84019;SDS011;74102;49.084;13.694;2024-01-30T05:24:05;2.13;;;0.80;;
84019;SDS011;74102;49.084;13.694;2024-01-30T05:26:30;2.15;;;0.70;;
84019;SDS011;74102;49.084;13.694;2024-01-30T05:28:56;2.25;;;0.85;;
84019;SDS011;74102;49.084;13.694;2024-01-30T05:31:22;2.00;;;0.57;;
84019;SDS011;74102;49.084;13.694;2024-01-30T05:33:47;2.40;;;0.90;;
84019;SDS011;74102;49.084;13.694;2024-01-30T05:36:13;1.92;;;0.70;;
84019;SDS011;74102;49.084;13.694;2024-01-30T05:38:38;1.63;;;0.70;;
84019;SDS011;74102;49.084;13.694;2024-01-30T05:41:04;1.85;;;0.80;;
84019;SDS011;74102;49.084;13.694;2024-01-30T05:43:30;2.03;;;0.73;;
84019;SDS011;74102;49.084;13.694;2024-01-30T05:45:55;1.25;;;0.57;;
84019;SDS011;74102;49.084;13.694;2024-01-30T05:48:20;1.05;;;0.47;;
84019;SDS011;74102;49.084;13.694;2024-01-30T05:50:46;1.80;;;0.77;;
84019;SDS011;74102;49.084;13.694;2024-01-30T05:53:11;2.28;;;0.98;;
84019;SDS011;74102;49.084;13.694;2024-01-30T05:55:37;1.88;;;0.73;;
84019;SDS011;74102;49.084;13.694;2024-01-30T05:58:02;2.10;;;0.88;;
84019;SDS011;74102;49.084;13.694;2024-01-30T06:00:28;2.28;;;0.80;;
84019;SDS011;74102;49.084;13.694;2024-01-30T06:02:54;2.03;;;0.90;;
84019;SDS011;74102;49.084;13.694;2024-01-30T06:05:19;1.63;;;0.55;;
84019;SDS011;74102;49.084;13.694;2024-01-30T06:07:45;2.30;;;0.80;;
84019;SDS011;74102;49.084;13.694;2024-01-30T06:10:10;2.33;;;0.82;;
84019;SDS011;74102;49.084;13.694;2024-01-30T06:12:35;2.08;;;0.80;;
84019;SDS011;74102;49.084;13.694;2024-01-30T06:15:01;2.13;;;0.77;;
84019;SDS011;74102;49.084;13.694;2024-01-30T06:17:27;2.60;;;0.90;;
84019;SDS011;74102;49.084;13.694;2024-01-30T06:19:53;2.95;;;0.70;;
84019;SDS011;74102;49.084;13.694;2024-01-30T06:22:18;3.67;;;1.52;;
84019;SDS011;74102;49.084;13.694;2024-01-30T06:24:44;2.25;;;0.70;;
84019;SDS011;74102;49.084;13.694;2024-01-30T06:27:10;2.50;;;0.93;;
84019;SDS011;74102;49.084;13.694;2024-01-30T06:29:36;22.02;;;1.33;;
84019;SDS011;74102;49.084;13.694;2024-01-30T06:32:01;3.47;;;1.20;;
84019;SDS011;74102;49.084;13.694;2024-01-30T06:34:26;3.63;;;1.20;;
84019;SDS011;74102;49.084;13.694;2024-01-30T06:36:52;2.38;;;0.82;;
84019;SDS011;74102;49.084;13.694;2024-01-30T06:39:17;2.67;;;0.90;;
84019;SDS011;74102;49.084;13.694;2024-01-30T06:41:43;3.08;;;1.15;;
84019;SDS011;74102;49.084;13.694;2024-01-30T06:44:08;2.90;;;1.10;;
84019;SDS011;74102;49.084;13.694;2024-01-30T06:46:34;3.50;;;1.33;;
84019;SDS011;74102;49.084;13.694;2024-01-30T06:49:00;5.93;;;1.70;;
84019;SDS011;74102;49.084;13.694;2024-01-30T06:51:26;5.57;;;1.13;;
84019;SDS011;74102;49.084;13.694;2024-01-30T06:53:51;7.05;;;1.33;;
84019;SDS011;74102;49.084;13.694;2024-01-30T06:56:17;12.65;;;1.90;;
84019;SDS011;74102;49.084;13.694;2024-01-30T06:58:46;3.85;;;1.50;;
84019;SDS011;74102;49.084;13.694;2024-01-30T07:01:15;7.97;;;2.35;;
84019;SDS011;74102;49.084;13.694;2024-01-30T07:03:41;4.38;;;1.65;;
84019;SDS011;74102;49.084;13.694;2024-01-30T07:06:07;9.45;;;3.00;;
84019;SDS011;74102;49.084;13.694;2024-01-30T07:08:33;4.90;;;1.90;;
84019;SDS011;74102;49.084;13.694;2024-01-30T07:10:58;5.00;;;2.00;;
84019;SDS011;74102;49.084;13.694;2024-01-30T07:13:24;5.43;;;1.80;;
84019;SDS011;74102;49.084;13.694;2024-01-30T07:15:49;9.80;;;2.25;;
84019;SDS011;74102;49.084;13.694;2024-01-30T07:18:15;3.65;;;1.30;;
84019;SDS011;74102;49.084;13.694;2024-01-30T07:20:40;3.92;;;1.45;;
84019;SDS011;74102;49.084;13.694;2024-01-30T07:23:14;3.35;;;1.30;;
84019;SDS011;74102;49.084;13.694;2024-01-30T07:25:43;5.57;;;1.67;;
84019;SDS011;74102;49.084;13.694;2024-01-30T07:28:09;6.10;;;1.77;;
84019;SDS011;74102;49.084;13.694;2024-01-30T07:30:36;6.63;;;2.00;;
84019;SDS011;74102;49.084;13.694;2024-01-30T07:33:01;9.60;;;2.97;;
84019;SDS011;74102;49.084;13.694;2024-01-30T07:35:27;8.82;;;2.92;;
84019;SDS011;74102;49.084;13.694;2024-01-30T07:37:52;9.85;;;3.10;;
84019;SDS011;74102;49.084;13.694;2024-01-30T07:40:18;11.60;;;3.42;;
84019;SDS011;74102;49.084;13.694;2024-01-30T07:42:43;16.02;;;6.57;;
84019;SDS011;74102;49.084;13.694;2024-01-30T07:45:09;13.27;;;5.93;;
84019;SDS011;74102;49.084;13.694;2024-01-30T07:47:34;13.07;;;4.65;;
84019;SDS011;74102;49.084;13.694;2024-01-30T07:50:00;13.00;;;5.55;;
84019;SDS011;74102;49.084;13.694;2024-01-30T07:52:25;10.07;;;5.07;;
84019;SDS011;74102;49.084;13.694;2024-01-30T07:54:51;16.00;;;5.28;;
84019;SDS011;74102;49.084;13.694;2024-01-30T07:57:16;13.05;;;5.00;;
84019;SDS011;74102;49.084;13.694;2024-01-30T07:59:43;16.80;;;7.10;;
84019;SDS011;74102;49.084;13.694;2024-01-30T08:02:09;16.58;;;7.35;;
84019;SDS011;74102;49.084;13.694;2024-01-30T08:04:35;26.73;;;10.18;;
84019;SDS011;74102;49.084;13.694;2024-01-30T08:07:00;26.98;;;11.77;;
84019;SDS011;74102;49.084;13.694;2024-01-30T08:09:26;25.60;;;9.85;;
84019;SDS011;74102;49.084;13.694;2024-01-30T08:11:51;15.00;;;6.30;;
84019;SDS011;74102;49.084;13.694;2024-01-30T08:14:17;19.13;;;5.45;;
84019;SDS011;74102;49.084;13.694;2024-01-30T08:16:42;13.02;;;4.53;;
84019;SDS011;74102;49.084;13.694;2024-01-30T08:19:07;14.10;;;5.75;;
84019;SDS011;74102;49.084;13.694;2024-01-30T08:21:33;12.18;;;5.50;;
84019;SDS011;74102;49.084;13.694;2024-01-30T08:24:02;13.32;;;5.03;;
84019;SDS011;74102;49.084;13.694;2024-01-30T08:26:29;13.10;;;5.72;;
84019;SDS011;74102;49.084;13.694;2024-01-30T08:28:55;16.77;;;8.05;;
84019;SDS011;74102;49.084;13.694;2024-01-30T08:31:20;12.32;;;6.30;;
84019;SDS011;74102;49.084;13.694;2024-01-30T08:33:45;12.75;;;5.45;;
84019;SDS011;74102;49.084;13.694;2024-01-30T08:36:11;9.30;;;3.92;;
84019;SDS011;74102;49.084;13.694;2024-01-30T08:38:36;15.02;;;5.93;;
84019;SDS011;74102;49.084;13.694;2024-01-30T08:41:01;13.68;;;5.78;;
84019;SDS011;74102;49.084;13.694;2024-01-30T08:43:28;11.93;;;4.50;;
84019;SDS011;74102;49.084;13.694;2024-01-30T08:45:53;9.35;;;4.10;;
84019;SDS011;74102;49.084;13.694;2024-01-30T08:48:18;8.90;;;3.00;;
84019;SDS011;74102;49.084;13.694;2024-01-30T08:50:44;9.77;;;3.67;;
84019;SDS011;74102;49.084;13.694;2024-01-30T08:53:09;8.73;;;3.80;;
84019;SDS011;74102;49.084;13.694;2024-01-30T08:55:34;8.18;;;3.60;;
84019;SDS011;74102;49.084;13.694;2024-01-30T08:58:00;9.63;;;4.38;;
84019;SDS011;74102;49.084;13.694;2024-01-30T09:00:25;10.90;;;4.70;;
84019;SDS011;74102;49.084;13.694;2024-01-30T09:02:51;9.40;;;4.25;;
84019;SDS011;74102;49.084;13.694;2024-01-30T09:05:16;9.20;;;4.15;;
84019;SDS011;74102;49.084;13.694;2024-01-30T09:07:42;10.40;;;3.40;;
84019;SDS011;74102;49.084;13.694;2024-01-30T09:10:07;7.70;;;3.45;;
84019;SDS011;74102;49.084;13.694;2024-01-30T09:12:33;6.97;;;3.08;;
84019;SDS011;74102;49.084;13.694;2024-01-30T09:14:58;8.40;;;3.42;;
84019;SDS011;74102;49.084;13.694;2024-01-30T09:17:24;7.68;;;3.35;;
84019;SDS011;74102;49.084;13.694;2024-01-30T09:19:50;8.23;;;3.33;;
84019;SDS011;74102;49.084;13.694;2024-01-30T09:22:15;9.38;;;3.72;;
84019;SDS011;74102;49.084;13.694;2024-01-30T09:24:40;9.93;;;3.53;;
84019;SDS011;74102;49.084;13.694;2024-01-30T09:27:06;8.30;;;3.30;;
84019;SDS011;74102;49.084;13.694;2024-01-30T09:29:31;8.85;;;3.22;;
84019;SDS011;74102;49.084;13.694;2024-01-30T09:31:59;8.48;;;3.05;;
84019;SDS011;74102;49.084;13.694;2024-01-30T09:34:25;8.90;;;3.15;;
84019;SDS011;74102;49.084;13.694;2024-01-30T09:36:50;10.75;;;4.03;;
84019;SDS011;74102;49.084;13.694;2024-01-30T09:39:15;10.80;;;3.60;;
84019;SDS011;74102;49.084;13.694;2024-01-30T09:41:45;8.90;;;3.20;;
84019;SDS011;74102;49.084;13.694;2024-01-30T09:44:15;6.85;;;3.13;;
84019;SDS011;74102;49.084;13.694;2024-01-30T09:46:41;7.90;;;3.08;;
84019;SDS011;74102;49.084;13.694;2024-01-30T09:49:08;9.95;;;4.40;;
84019;SDS011;74102;49.084;13.694;2024-01-30T09:51:34;13.82;;;6.53;;
84019;SDS011;74102;49.084;13.694;2024-01-30T09:54:01;20.15;;;9.48;;
84019;SDS011;74102;49.084;13.694;2024-01-30T09:56:28;18.85;;;8.98;;
84019;SDS011;74102;49.084;13.694;2024-01-30T09:58:54;28.70;;;13.05;;
84019;SDS011;74102;49.084;13.694;2024-01-30T10:01:19;29.60;;;13.23;;
84019;SDS011;74102;49.084;13.694;2024-01-30T10:03:45;27.02;;;13.52;;
84019;SDS011;74102;49.084;13.694;2024-01-30T10:06:11;30.42;;;14.40;;
84019;SDS011;74102;49.084;13.694;2024-01-30T10:08:36;26.63;;;12.75;;
84019;SDS011;74102;49.084;13.694;2024-01-30T10:11:02;23.85;;;11.23;;
84019;SDS011;74102;49.084;13.694;2024-01-30T10:13:28;27.63;;;11.25;;
84019;SDS011;74102;49.084;13.694;2024-01-30T10:15:54;27.80;;;11.75;;
84019;SDS011;74102;49.084;13.694;2024-01-30T10:18:20;25.08;;;11.13;;
84019;SDS011;74102;49.084;13.694;2024-01-30T10:20:47;14.30;;;5.40;;
84019;SDS011;74102;49.084;13.694;2024-01-30T10:23:13;12.88;;;4.50;;
84019;SDS011;74102;49.084;13.694;2024-01-30T10:25:38;8.75;;;3.58;;
84019;SDS011;74102;49.084;13.694;2024-01-30T10:28:04;7.90;;;3.45;;
84019;SDS011;74102;49.084;13.694;2024-01-30T10:30:30;12.40;;;4.28;;
84019;SDS011;74102;49.084;13.694;2024-01-30T10:32:55;9.68;;;4.40;;
84019;SDS011;74102;49.084;13.694;2024-01-30T10:35:20;8.98;;;3.90;;
84019;SDS011;74102;49.084;13.694;2024-01-30T10:37:49;10.55;;;4.70;;
84019;SDS011;74102;49.084;13.694;2024-01-30T10:40:15;11.43;;;4.68;;
84019;SDS011;74102;49.084;13.694;2024-01-30T10:42:44;10.68;;;5.13;;
84019;SDS011;74102;49.084;13.694;2024-01-30T10:45:14;11.27;;;5.10;;
84019;SDS011;74102;49.084;13.694;2024-01-30T10:47:44;11.05;;;4.97;;
84019;SDS011;74102;49.084;13.694;2024-01-30T10:50:18;12.35;;;5.28;;
84019;SDS011;74102;49.084;13.694;2024-01-30T10:52:44;10.90;;;5.22;;
84019;SDS011;74102;49.084;13.694;2024-01-30T10:55:10;11.25;;;4.80;;
84019;SDS011;74102;49.084;13.694;2024-01-30T10:57:36;10.82;;;4.90;;
84019;SDS011;74102;49.084;13.694;2024-01-30T11:00:10;10.13;;;5.43;;
84019;SDS011;74102;49.084;13.694;2024-01-30T11:02:44;9.23;;;5.32;;
84019;SDS011;74102;49.084;13.694;2024-01-30T11:05:11;8.75;;;4.15;;
84019;SDS011;74102;49.084;13.694;2024-01-30T11:07:38;10.63;;;4.70;;
84019;SDS011;74102;49.084;13.694;2024-01-30T11:10:05;9.40;;;4.30;;
84019;SDS011;74102;49.084;13.694;2024-01-30T11:12:37;10.70;;;4.43;;
84019;SDS011;74102;49.084;13.694;2024-01-30T11:15:06;8.70;;;4.50;;
84019;SDS011;74102;49.084;13.694;2024-01-30T11:17:53;10.50;;;5.07;;
84019;SDS011;74102;49.084;13.694;2024-01-30T11:20:20;11.05;;;4.30;;
84019;SDS011;74102;49.084;13.694;2024-01-30T11:22:47;10.18;;;4.05;;
84019;SDS011;74102;49.084;13.694;2024-01-30T11:25:16;11.07;;;4.78;;
84019;SDS011;74102;49.084;13.694;2024-01-30T11:27:43;24.70;;;10.85;;
84019;SDS011;74102;49.084;13.694;2024-01-30T11:30:09;13.80;;;6.82;;
84019;SDS011;74102;49.084;13.694;2024-01-30T11:32:35;13.05;;;6.65;;
84019;SDS011;74102;49.084;13.694;2024-01-30T11:35:04;14.18;;;7.80;;
84019;SDS011;74102;49.084;13.694;2024-01-30T11:37:31;16.05;;;7.47;;
84019;SDS011;74102;49.084;13.694;2024-01-30T11:39:57;16.13;;;7.82;;
84019;SDS011;74102;49.084;13.694;2024-01-30T11:42:23;17.88;;;8.32;;
84019;SDS011;74102;49.084;13.694;2024-01-30T11:44:52;16.35;;;8.00;;
84019;SDS011;74102;49.084;13.694;2024-01-30T11:47:18;18.60;;;8.77;;
84019;SDS011;74102;49.084;13.694;2024-01-30T11:49:43;19.33;;;8.07;;
84019;SDS011;74102;49.084;13.694;2024-01-30T11:52:09;16.65;;;8.10;;
84019;SDS011;74102;49.084;13.694;2024-01-30T11:54:35;17.30;;;7.88;;
84019;SDS011;74102;49.084;13.694;2024-01-30T11:57:01;16.40;;;7.85;;
84019;SDS011;74102;49.084;13.694;2024-01-30T11:59:26;16.38;;;7.82;;
84019;SDS011;74102;49.084;13.694;2024-01-30T12:01:57;17.08;;;8.60;;
84019;SDS011;74102;49.084;13.694;2024-01-30T12:04:23;20.48;;;9.88;;
84019;SDS011;74102;49.084;13.694;2024-01-30T12:06:52;20.10;;;10.18;;
84019;SDS011;74102;49.084;13.694;2024-01-30T12:09:18;24.63;;;11.60;;
84019;SDS011;74102;49.084;13.694;2024-01-30T12:11:47;28.65;;;13.50;;
84019;SDS011;74102;49.084;13.694;2024-01-30T12:14:13;21.50;;;10.75;;
84019;SDS011;74102;49.084;13.694;2024-01-30T12:16:40;24.35;;;11.45;;
84019;SDS011;74102;49.084;13.694;2024-01-30T12:19:06;22.05;;;10.27;;
84019;SDS011;74102;49.084;13.694;2024-01-30T12:21:33;24.08;;;10.60;;
84019;SDS011;74102;49.084;13.694;2024-01-30T12:23:59;24.05;;;10.45;;
84019;SDS011;74102;49.084;13.694;2024-01-30T12:26:25;22.83;;;10.85;;
84019;SDS011;74102;49.084;13.694;2024-01-30T12:28:53;30.02;;;14.98;;
84019;SDS011;74102;49.084;13.694;2024-01-30T12:31:25;25.15;;;11.73;;
84019;SDS011;74102;49.084;13.694;2024-01-30T12:33:52;27.65;;;12.45;;
84019;SDS011;74102;49.084;13.694;2024-01-30T12:36:17;29.35;;;13.20;;
84019;SDS011;74102;49.084;13.694;2024-01-30T12:38:43;27.30;;;12.95;;
84019;SDS011;74102;49.084;13.694;2024-01-30T12:41:09;31.52;;;14.50;;
84019;SDS011;74102;49.084;13.694;2024-01-30T12:43:35;30.30;;;13.88;;
84019;SDS011;74102;49.084;13.694;2024-01-30T12:46:01;25.45;;;12.82;;
84019;SDS011;74102;49.084;13.694;2024-01-30T12:48:28;27.80;;;12.85;;
84019;SDS011;74102;49.084;13.694;2024-01-30T12:50:54;26.50;;;13.32;;
84019;SDS011;74102;49.084;13.694;2024-01-30T12:53:21;37.25;;;17.55;;
84019;SDS011;74102;49.084;13.694;2024-01-30T12:55:46;26.20;;;13.30;;
84019;SDS011;74102;49.084;13.694;2024-01-30T12:58:12;28.45;;;12.52;;
84019;SDS011;74102;49.084;13.694;2024-01-30T13:00:37;27.48;;;12.70;;
84019;SDS011;74102;49.084;13.694;2024-01-30T13:03:03;32.85;;;14.27;;
84019;SDS011;74102;49.084;13.694;2024-01-30T13:05:28;25.48;;;12.15;;
84019;SDS011;74102;49.084;13.694;2024-01-30T13:07:54;26.98;;;12.07;;
84019;SDS011;74102;49.084;13.694;2024-01-30T13:10:21;28.60;;;12.27;;
84019;SDS011;74102;49.084;13.694;2024-01-30T13:12:47;25.95;;;12.60;;
84019;SDS011;74102;49.084;13.694;2024-01-30T13:15:12;23.05;;;11.57;;
84019;SDS011;74102;49.084;13.694;2024-01-30T13:17:37;24.90;;;12.40;;
84019;SDS011;74102;49.084;13.694;2024-01-30T13:20:03;25.65;;;12.10;;
84019;SDS011;74102;49.084;13.694;2024-01-30T13:22:29;23.65;;;10.65;;
84019;SDS011;74102;49.084;13.694;2024-01-30T13:24:54;23.40;;;10.77;;
84019;SDS011;74102;49.084;13.694;2024-01-30T13:27:20;24.10;;;11.77;;
84019;SDS011;74102;49.084;13.694;2024-01-30T13:29:46;22.90;;;11.13;;
84019;SDS011;74102;49.084;13.694;2024-01-30T13:32:11;29.38;;;13.52;;
84019;SDS011;74102;49.084;13.694;2024-01-30T13:34:37;23.17;;;11.57;;
84019;SDS011;74102;49.084;13.694;2024-01-30T13:37:02;25.52;;;12.98;;
84019;SDS011;74102;49.084;13.694;2024-01-30T13:39:27;27.55;;;14.15;;
84019;SDS011;74102;49.084;13.694;2024-01-30T13:41:54;23.33;;;10.73;;
84019;SDS011;74102;49.084;13.694;2024-01-30T13:44:19;23.75;;;11.25;;
84019;SDS011;74102;49.084;13.694;2024-01-30T13:46:45;24.50;;;11.27;;
84019;SDS011;74102;49.084;13.694;2024-01-30T13:49:11;25.30;;;12.02;;
84019;SDS011;74102;49.084;13.694;2024-01-30T13:51:37;20.88;;;10.50;;
84019;SDS011;74102;49.084;13.694;2024-01-30T13:54:02;20.50;;;10.57;;
84019;SDS011;74102;49.084;13.694;2024-01-30T13:56:28;24.35;;;11.45;;
84019;SDS011;74102;49.084;13.694;2024-01-30T13:58:54;23.52;;;10.63;;
84019;SDS011;74102;49.084;13.694;2024-01-30T14:01:21;23.85;;;11.13;;
84019;SDS011;74102;49.084;13.694;2024-01-30T14:03:47;25.63;;;12.43;;
84019;SDS011;74102;49.084;13.694;2024-01-30T14:06:12;26.27;;;11.98;;
84019;SDS011;74102;49.084;13.694;2024-01-30T14:08:38;24.17;;;11.55;;
84019;SDS011;74102;49.084;13.694;2024-01-30T14:11:04;24.10;;;11.32;;
84019;SDS011;74102;49.084;13.694;2024-01-30T14:13:29;21.55;;;10.93;;
84019;SDS011;74102;49.084;13.694;2024-01-30T14:15:56;25.35;;;12.43;;
84019;SDS011;74102;49.084;13.694;2024-01-30T14:18:22;56.10;;;27.30;;